createdAt,value
2018-12-09T00:02:22.905Z,6.61
2018-12-09T00:04:51.342Z,6.64
2018-12-09T00:07:19.033Z,6.71
2018-12-09T00:09:47.658Z,6.75
2018-12-09T00:12:15.267Z,6.69
2018-12-09T00:14:43.666Z,6.76
2018-12-09T00:17:11.285Z,6.72
2018-12-09T00:19:39.803Z,6.69
2018-12-09T00:22:08.390Z,6.68
2018-12-09T00:24:36.935Z,6.72
2018-12-09T00:27:05.460Z,6.73
2018-12-09T00:29:33.936Z,6.68
2018-12-09T00:32:01.575Z,6.70
2018-12-09T00:34:30.146Z,6.72
2018-12-09T00:36:57.751Z,6.71
2018-12-09T00:39:26.278Z,6.78
2018-12-09T00:41:53.924Z,6.71
2018-12-09T00:44:21.538Z,6.75
2018-12-09T00:46:49.226Z,6.82
2018-12-09T00:49:16.891Z,6.75
2018-12-09T00:51:45.288Z,6.79
2018-12-09T00:54:12.930Z,6.74
2018-12-09T00:56:41.470Z,6.70
2018-12-09T00:59:10.028Z,6.65
2018-12-09T01:01:37.642Z,6.71
2018-12-09T01:04:05.297Z,6.72
2018-12-09T01:06:33.511Z,6.70
2018-12-09T01:09:01.500Z,6.71
2018-12-09T01:11:29.130Z,6.69
2018-12-09T01:13:56.747Z,6.69
2018-12-09T01:16:25.212Z,6.72
2018-12-09T01:18:52.831Z,6.69
2018-12-09T01:21:20.442Z,6.71
2018-12-09T01:23:48.972Z,6.78
2018-12-09T01:26:17.443Z,6.74
2018-12-09T01:28:45.882Z,6.79
2018-12-09T01:31:14.413Z,6.80
2018-12-09T01:33:42.839Z,6.77
2018-12-09T01:36:11.248Z,6.78
2018-12-09T01:38:38.874Z,6.67
2018-12-09T01:41:07.414Z,6.74
2018-12-09T01:43:35.051Z,6.73
2018-12-09T01:46:04.613Z,6.69
2018-12-09T01:48:32.803Z,6.62
2018-12-09T01:51:00.435Z,6.66
2018-12-09T01:53:40.019Z,6.66
2018-12-09T01:56:08.568Z,6.64
2018-12-09T01:58:37.111Z,6.70
2018-12-09T02:01:05.676Z,6.73
2018-12-09T02:03:34.222Z,6.67
2018-12-09T02:06:02.840Z,6.59
2018-12-09T02:08:31.421Z,6.58
2018-12-09T02:10:59.594Z,6.49
2018-12-09T02:13:28.152Z,6.59
2018-12-09T02:15:56.664Z,6.58
2018-12-09T02:18:24.291Z,6.55
2018-12-09T02:20:52.617Z,6.66
2018-12-09T02:23:21.090Z,6.65
2018-12-09T02:25:48.771Z,6.59
2018-12-09T02:28:17.537Z,6.61
2018-12-09T02:30:45.163Z,6.67
2018-12-09T02:33:13.994Z,6.71
2018-12-09T02:35:47.230Z,6.77
2018-12-09T02:38:15.692Z,6.78
2018-12-09T02:40:44.265Z,6.83
2018-12-09T02:43:12.825Z,6.96
2018-12-09T02:45:41.417Z,6.94
2018-12-09T02:48:09.051Z,6.97
2018-12-09T02:50:37.632Z,7.04
2018-12-09T02:53:05.338Z,7.06
2018-12-09T02:55:33.935Z,7.08
2018-12-09T02:58:02.478Z,7.04
2018-12-09T03:00:31.407Z,7.11
2018-12-09T03:03:00.044Z,7.08
2018-12-09T03:05:28.669Z,7.24
2018-12-09T03:07:57.219Z,7.20
2018-12-09T03:10:25.797Z,7.09
2018-12-09T03:12:53.444Z,7.04
2018-12-09T03:15:21.997Z,7.02
2018-12-09T03:17:50.795Z,7.01
2018-12-09T03:20:18.480Z,7.10
2018-12-09T03:22:46.883Z,7.06
2018-12-09T03:25:14.497Z,7.03
2018-12-09T03:27:43.055Z,7.02
2018-12-09T03:30:11.461Z,7.08
2018-12-09T03:32:40.108Z,7.06
2018-12-09T03:35:08.717Z,7.10
2018-12-09T03:37:37.171Z,7.14
2018-12-09T03:40:06.237Z,7.09
2018-12-09T03:42:34.832Z,7.21
2018-12-09T03:45:05.329Z,7.23
2018-12-09T03:47:33.833Z,7.28
2018-12-09T03:50:01.472Z,7.30
2018-12-09T03:52:30.054Z,7.38
2018-12-09T03:54:58.635Z,7.36
2018-12-09T03:57:26.556Z,7.34
2018-12-09T03:59:57.075Z,7.40
2018-12-09T04:02:24.749Z,7.40
2018-12-09T04:04:52.375Z,7.44
2018-12-09T04:07:20.016Z,7.47
2018-12-09T04:09:47.649Z,7.50
2018-12-09T04:12:15.296Z,7.50
2018-12-09T04:14:42.935Z,7.61
2018-12-09T04:17:11.390Z,7.65
2018-12-09T04:19:39.015Z,7.64
2018-12-09T04:22:06.762Z,7.68
2018-12-09T04:24:34.501Z,7.76
2018-12-09T04:27:02.595Z,7.82
2018-12-09T04:29:30.241Z,7.82
2018-12-09T04:31:57.881Z,7.88
2018-12-09T04:34:25.498Z,7.86
2018-12-09T04:36:53.131Z,7.85
2018-12-09T04:39:21.114Z,7.95
2018-12-09T04:41:48.740Z,8.00
2018-12-09T04:44:16.413Z,7.92
2018-12-09T04:46:44.035Z,7.94
2018-12-09T04:49:11.679Z,7.88
2018-12-09T04:51:52.301Z,7.89
2018-12-09T04:54:19.946Z,7.92
2018-12-09T04:56:47.648Z,7.92
2018-12-09T04:59:19.861Z,8.04
2018-12-09T05:01:48.382Z,7.99
2018-12-09T05:04:16.083Z,8.08
2018-12-09T05:06:43.791Z,8.12
2018-12-09T05:09:12.285Z,8.08
2018-12-09T05:11:40.724Z,8.09
2018-12-09T05:14:09.044Z,8.05
2018-12-09T05:16:37.533Z,8.00
2018-12-09T05:19:06.010Z,8.07
2018-12-09T05:21:34.892Z,8.07
2018-12-09T05:24:04.607Z,8.08
2018-12-09T05:26:33.919Z,8.11
2018-12-09T05:29:02.516Z,8.14
2018-12-09T05:31:32.811Z,8.12
2018-12-09T05:34:01.401Z,8.13
2018-12-09T05:36:29.229Z,8.14
2018-12-09T05:38:57.837Z,8.13
2018-12-09T05:41:25.595Z,8.19
2018-12-09T05:43:53.921Z,8.16
2018-12-09T05:46:22.512Z,8.24
2018-12-09T05:48:50.138Z,8.23
2018-12-09T05:51:17.799Z,8.29
2018-12-09T05:53:46.393Z,8.23
2018-12-09T05:56:14.010Z,8.25
2018-12-09T05:58:42.615Z,8.20
2018-12-09T06:01:11.205Z,7.93
2018-12-09T06:03:39.772Z,7.91
2018-12-09T06:06:08.190Z,7.77
2018-12-09T06:08:35.848Z,7.77
2018-12-09T06:11:04.802Z,7.83
2018-12-09T06:13:34.408Z,7.76
2018-12-09T06:16:03.689Z,7.73
2018-12-09T06:18:33.474Z,7.75
2018-12-09T06:21:02.271Z,7.85
2018-12-09T06:23:32.874Z,7.80
2018-12-09T06:26:00.537Z,7.81
2018-12-09T06:28:28.221Z,7.78
2018-12-09T06:30:55.839Z,7.84
2018-12-09T06:33:23.534Z,7.90
2018-12-09T06:35:51.594Z,7.95
2018-12-09T06:38:19.262Z,7.90
2018-12-09T06:40:47.067Z,7.87
2018-12-09T06:43:14.731Z,7.86
2018-12-09T06:45:42.413Z,7.86
2018-12-09T06:48:11.238Z,7.83
2018-12-09T06:50:38.880Z,7.70
2018-12-09T06:53:06.541Z,7.74
2018-12-09T06:55:34.982Z,7.75
2018-12-09T06:58:02.691Z,7.65
2018-12-09T07:00:31.574Z,7.61
2018-12-09T07:02:59.217Z,7.65
2018-12-09T07:05:26.912Z,7.66
2018-12-09T07:07:55.336Z,7.63
2018-12-09T07:10:23.769Z,7.71
2018-12-09T07:12:51.445Z,7.70
2018-12-09T07:15:19.870Z,7.75
2018-12-09T07:17:47.570Z,7.76
2018-12-09T07:20:15.180Z,7.78
2018-12-09T07:22:43.762Z,7.78
2018-12-09T07:25:11.394Z,7.73
2018-12-09T07:27:39.974Z,7.63
2018-12-09T07:30:08.669Z,7.58
2018-12-09T07:32:36.359Z,7.55
2018-12-09T07:35:04.277Z,7.51
2018-12-09T07:37:32.082Z,7.55
2018-12-09T07:40:00.687Z,7.49
2018-12-09T07:42:28.325Z,7.48
2018-12-09T07:44:56.830Z,7.48
2018-12-09T07:47:24.466Z,7.58
2018-12-09T07:49:53.587Z,7.59
2018-12-09T07:52:21.288Z,7.64
2018-12-09T07:54:48.915Z,7.59
2018-12-09T07:57:17.663Z,7.60
2018-12-09T07:59:45.276Z,7.66
2018-12-09T08:02:13.691Z,7.71
2018-12-09T08:04:41.304Z,7.76
2018-12-09T08:07:09.721Z,7.65
2018-12-09T08:09:37.332Z,7.61
2018-12-09T08:12:05.913Z,7.49
2018-12-09T08:14:35.243Z,7.49
2018-12-09T08:17:03.878Z,7.52
2018-12-09T08:19:31.497Z,7.49
2018-12-09T08:22:00.064Z,7.55
2018-12-09T08:24:28.609Z,7.53
2018-12-09T08:26:57.063Z,7.55
2018-12-09T08:29:24.735Z,7.62
2018-12-09T08:31:52.361Z,7.74
2018-12-09T08:34:21.012Z,7.79
2018-12-09T08:36:49.560Z,7.93
2018-12-09T08:39:17.183Z,7.99
2018-12-09T08:41:44.812Z,8.04
2018-12-09T08:44:12.608Z,8.12
2018-12-09T08:46:40.312Z,8.21
2018-12-09T08:49:07.945Z,8.22
2018-12-09T08:51:35.575Z,8.30
2018-12-09T08:54:04.037Z,8.21
2018-12-09T08:56:32.694Z,8.05
2018-12-09T08:59:00.315Z,8.13
2018-12-09T09:01:28.864Z,8.15
2018-12-09T09:03:56.504Z,7.98
2018-12-09T09:06:24.958Z,8.04
2018-12-09T09:08:53.403Z,7.86
2018-12-09T09:11:21.289Z,7.99
2018-12-09T09:13:49.890Z,8.01
2018-12-09T09:16:18.389Z,7.84
2018-12-09T09:18:46.805Z,7.97
2018-12-09T09:21:14.438Z,7.88
2018-12-09T09:23:42.252Z,7.78
2018-12-09T09:26:09.876Z,7.78
2018-12-09T09:28:38.461Z,7.78
2018-12-09T09:31:07.039Z,7.67
2018-12-09T09:33:35.617Z,7.68
2018-12-09T09:36:04.147Z,7.69
2018-12-09T09:38:33.993Z,7.62
2018-12-09T09:41:02.472Z,7.73
2018-12-09T09:43:31.002Z,7.73
2018-12-09T09:45:58.909Z,7.77
2018-12-09T09:48:27.605Z,7.84
2018-12-09T09:50:56.198Z,8.02
2018-12-09T09:53:24.736Z,8.07
2018-12-09T09:55:52.386Z,7.97
2018-12-09T09:58:20.964Z,8.04
2018-12-09T10:00:49.532Z,7.90
2018-12-09T10:03:17.227Z,7.89
2018-12-09T10:05:44.876Z,7.91
2018-12-09T10:08:13.299Z,7.87
2018-12-09T10:10:41.782Z,7.80
2018-12-09T10:13:09.397Z,7.91
2018-12-09T10:15:37.075Z,8.00
2018-12-09T10:18:04.694Z,8.06
2018-12-09T10:20:33.246Z,8.14
2018-12-09T10:23:00.886Z,8.01
2018-12-09T10:25:28.544Z,8.11
2018-12-09T10:27:56.174Z,8.08
2018-12-09T10:30:23.824Z,8.19
2018-12-09T10:32:51.465Z,8.23
2018-12-09T10:35:19.087Z,8.25
2018-12-09T10:37:46.743Z,8.23
2018-12-09T10:40:14.397Z,8.33
2018-12-09T10:42:42.946Z,8.25
2018-12-09T10:45:10.595Z,8.24
2018-12-09T10:47:38.255Z,8.47
2018-12-09T10:50:06.940Z,8.42
2018-12-09T10:52:35.406Z,8.60
2018-12-09T10:55:03.112Z,8.54
2018-12-09T10:57:30.769Z,8.41
2018-12-09T10:59:58.764Z,8.22
2018-12-09T11:02:26.394Z,8.36
2018-12-09T11:04:54.018Z,8.26
2018-12-09T11:07:21.707Z,8.31
2018-12-09T11:09:49.331Z,8.26
2018-12-09T11:12:16.951Z,8.38
2018-12-09T11:14:44.616Z,8.56
2018-12-09T11:17:12.359Z,8.73
2018-12-09T11:19:39.982Z,8.92
2018-12-09T11:22:08.456Z,8.83
2018-12-09T11:24:36.139Z,8.89
2018-12-09T11:27:03.840Z,8.99
2018-12-09T11:29:31.461Z,8.74
2018-12-09T11:31:59.098Z,8.81
2018-12-09T11:34:26.726Z,8.69
2018-12-09T11:36:54.349Z,8.56
2018-12-09T11:39:21.979Z,8.37
2018-12-09T11:41:49.607Z,8.37
2018-12-09T11:44:17.202Z,8.45
2018-12-09T11:46:44.829Z,8.35
2018-12-09T11:49:12.480Z,8.37
2018-12-09T11:51:40.095Z,8.35
2018-12-09T11:54:13.446Z,8.28
2018-12-09T11:56:41.074Z,8.19
2018-12-09T11:59:08.692Z,8.27
2018-12-09T12:01:36.323Z,8.23
2018-12-09T12:04:04.027Z,8.31
2018-12-09T12:06:32.575Z,8.37
2018-12-09T12:09:00.225Z,8.41
2018-12-09T12:11:27.863Z,8.33
2018-12-09T12:13:55.483Z,8.42
2018-12-09T12:16:23.892Z,8.39
2018-12-09T12:18:51.520Z,8.39
2018-12-09T12:21:19.142Z,8.45
2018-12-09T12:23:46.917Z,8.50
2018-12-09T12:26:14.822Z,8.40
2018-12-09T12:28:42.588Z,8.50
2018-12-09T12:31:10.216Z,8.64
2018-12-09T12:33:37.827Z,8.56
2018-12-09T12:36:06.424Z,8.55
2018-12-09T12:38:34.059Z,8.50
2018-12-09T12:41:02.610Z,8.57
2018-12-09T12:43:30.305Z,8.40
2018-12-09T12:45:57.934Z,8.31
2018-12-09T12:48:25.999Z,8.29
2018-12-09T12:50:53.630Z,8.19
2018-12-09T12:53:21.341Z,8.13
2018-12-09T12:55:49.753Z,8.14
2018-12-09T12:58:17.378Z,8.10
2018-12-09T13:00:45.008Z,7.98
2018-12-09T13:03:12.681Z,8.00
2018-12-09T13:05:40.305Z,7.97
2018-12-09T13:08:08.025Z,7.99
2018-12-09T13:10:36.543Z,8.00
2018-12-09T13:13:04.170Z,7.97
2018-12-09T13:15:32.791Z,8.00
2018-12-09T13:18:00.413Z,7.97
2018-12-09T13:20:28.032Z,7.99
2018-12-09T13:22:55.655Z,7.99
2018-12-09T13:25:23.280Z,8.02
2018-12-09T13:27:50.902Z,8.00
2018-12-09T13:30:18.520Z,7.96
2018-12-09T13:32:46.236Z,7.97
2018-12-09T13:35:13.906Z,7.98
2018-12-09T13:37:42.441Z,7.99
2018-12-09T13:40:11.086Z,7.81
2018-12-09T13:42:38.714Z,7.91
2018-12-09T13:45:07.194Z,7.83
2018-12-09T13:47:34.819Z,7.84
2018-12-09T13:50:02.530Z,7.82
2018-12-09T13:52:32.261Z,7.85
2018-12-09T13:54:59.877Z,7.80
2018-12-09T13:57:27.481Z,7.85
2018-12-09T13:59:57.401Z,7.81
2018-12-09T14:02:25.162Z,7.87
2018-12-09T14:04:53.640Z,7.78
2018-12-09T14:07:21.406Z,7.78
2018-12-09T14:09:49.027Z,7.77
2018-12-09T14:12:17.456Z,7.67
2018-12-09T14:14:45.876Z,7.60
2018-12-09T14:17:14.394Z,7.60
2018-12-09T14:19:42.015Z,7.45
2018-12-09T14:22:09.694Z,7.49
2018-12-09T14:24:37.315Z,7.51
2018-12-09T14:27:05.018Z,7.53
2018-12-09T14:29:33.551Z,7.52
2018-12-09T14:32:01.457Z,7.44
2018-12-09T14:34:29.378Z,7.43
2018-12-09T14:36:56.992Z,7.45
2018-12-09T14:39:25.406Z,7.46
2018-12-09T14:41:53.022Z,7.45
2018-12-09T14:44:20.641Z,7.45
2018-12-09T14:46:48.265Z,7.42
2018-12-09T14:49:15.876Z,7.51
2018-12-09T14:51:44.448Z,7.38
2018-12-09T14:54:12.071Z,7.34
2018-12-09T14:56:39.682Z,7.34
2018-12-09T14:59:07.309Z,7.29
2018-12-09T15:01:34.923Z,7.26
2018-12-09T15:04:02.546Z,7.31
2018-12-09T15:06:30.183Z,7.29
2018-12-09T15:08:57.804Z,7.21
2018-12-09T15:11:25.432Z,7.23
2018-12-09T15:13:53.051Z,7.20
2018-12-09T15:16:20.670Z,7.21
2018-12-09T15:18:48.283Z,7.20
2018-12-09T15:21:15.912Z,7.22
2018-12-09T15:23:43.563Z,7.22
2018-12-09T15:26:11.181Z,7.19
2018-12-09T15:28:39.634Z,7.19
2018-12-09T15:31:07.249Z,7.16
2018-12-09T15:33:34.880Z,7.21
2018-12-09T15:36:03.508Z,7.21
2018-12-09T15:38:31.560Z,7.13
2018-12-09T15:40:59.213Z,7.17
2018-12-09T15:43:27.873Z,7.15
2018-12-09T15:45:55.554Z,7.05
2018-12-09T15:48:23.188Z,7.06
2018-12-09T15:50:51.191Z,6.99
2018-12-09T15:53:19.739Z,7.03
2018-12-09T15:55:48.152Z,7.00
2018-12-09T15:58:15.815Z,6.97
2018-12-09T16:00:49.109Z,7.05
2018-12-09T16:03:16.753Z,7.06
2018-12-09T16:05:44.374Z,7.00
2018-12-09T16:08:12.816Z,7.03
2018-12-09T16:10:40.426Z,7.07
2018-12-09T16:13:08.083Z,7.08
2018-12-09T16:15:36.737Z,7.18
2018-12-09T16:18:04.349Z,7.12
2018-12-09T16:20:32.097Z,7.10
2018-12-09T16:22:59.722Z,7.12
2018-12-09T16:25:27.335Z,7.11
2018-12-09T16:27:55.748Z,7.18
2018-12-09T16:30:24.291Z,7.14
2018-12-09T16:32:52.873Z,7.07
2018-12-09T16:35:20.575Z,7.03
2018-12-09T16:37:49.027Z,7.05
2018-12-09T16:40:16.648Z,7.07
2018-12-09T16:42:45.199Z,7.10
2018-12-09T16:45:12.832Z,7.01
2018-12-09T16:47:41.238Z,7.02
2018-12-09T16:50:08.860Z,7.04
2018-12-09T16:52:36.473Z,7.05
2018-12-09T16:55:05.462Z,7.06
2018-12-09T16:57:34.032Z,7.16
2018-12-09T17:00:02.672Z,7.16
2018-12-09T17:02:31.598Z,7.17
2018-12-09T17:05:00.012Z,7.19
2018-12-09T17:07:28.560Z,7.21
2018-12-09T17:09:56.955Z,7.12
2018-12-09T17:12:25.510Z,7.09
2018-12-09T17:14:53.907Z,7.04
2018-12-09T17:17:21.526Z,7.01
2018-12-09T17:19:49.186Z,7.05
2018-12-09T17:22:16.821Z,7.11
2018-12-09T17:24:44.486Z,7.16
2018-12-09T17:27:12.924Z,7.18
2018-12-09T17:29:40.550Z,7.23
2018-12-09T17:32:09.089Z,7.20
2018-12-09T17:34:36.706Z,7.23
2018-12-09T17:37:05.171Z,7.21
2018-12-09T17:39:34.593Z,7.19
2018-12-09T17:42:03.985Z,7.20
2018-12-09T17:44:32.473Z,7.13
2018-12-09T17:47:01.029Z,7.21
2018-12-09T17:49:29.482Z,7.08
2018-12-09T17:51:57.095Z,7.10
2018-12-09T17:54:25.643Z,7.14
2018-12-09T17:56:53.255Z,7.07
2018-12-09T17:59:20.873Z,7.03
2018-12-09T18:01:48.488Z,7.04
2018-12-09T18:04:16.103Z,7.04
2018-12-09T18:06:43.779Z,7.11
2018-12-09T18:09:12.356Z,7.05
2018-12-09T18:11:39.976Z,7.04
2018-12-09T18:14:07.620Z,7.02
2018-12-09T18:16:35.238Z,7.02
2018-12-09T18:19:03.719Z,7.06
2018-12-09T18:21:32.762Z,7.02
2018-12-09T18:24:00.379Z,7.05
2018-12-09T18:26:28.065Z,7.03
2018-12-09T18:28:56.509Z,7.06
2018-12-09T18:31:24.283Z,7.08
2018-12-09T18:33:51.986Z,7.05
2018-12-09T18:36:20.810Z,7.09
2018-12-09T18:38:49.995Z,7.12
2018-12-09T18:41:17.623Z,7.14
2018-12-09T18:43:46.156Z,7.17
2018-12-09T18:46:14.724Z,7.18
2018-12-09T18:48:42.370Z,7.17
2018-12-09T18:51:09.959Z,7.18
2018-12-09T18:53:37.590Z,7.14
2018-12-09T18:56:05.283Z,7.11
2018-12-09T18:58:33.721Z,7.15
2018-12-09T19:01:03.423Z,7.12
2018-12-09T19:03:31.937Z,7.07
2018-12-09T19:05:59.549Z,7.05
2018-12-09T19:08:27.347Z,7.05
2018-12-09T19:10:54.955Z,7.07
2018-12-09T19:13:22.606Z,7.15
2018-12-09T19:15:50.233Z,7.19
2018-12-09T19:18:18.795Z,7.15
2018-12-09T19:20:47.316Z,7.18
2018-12-09T19:23:15.865Z,7.19
2018-12-09T19:25:43.705Z,7.17
2018-12-09T19:28:12.244Z,7.23
2018-12-09T19:30:47.933Z,7.23
2018-12-09T19:33:09.537Z,7.28
2018-12-09T19:35:37.163Z,7.18
2018-12-09T19:38:04.780Z,7.20
2018-12-09T19:40:32.445Z,7.23
2018-12-09T19:43:00.069Z,7.28
2018-12-09T19:45:27.692Z,7.24
2018-12-09T19:47:56.574Z,7.26
2018-12-09T19:50:24.267Z,7.26
2018-12-09T19:52:52.675Z,7.24
2018-12-09T19:55:20.325Z,7.22
2018-12-09T19:57:47.957Z,7.21
2018-12-09T20:00:15.610Z,7.21
2018-12-09T20:02:44.221Z,7.22
2018-12-09T20:05:12.370Z,7.22
2018-12-09T20:07:40.028Z,7.19
2018-12-09T20:10:08.002Z,7.23
2018-12-09T20:12:35.640Z,7.16
2018-12-09T20:15:04.512Z,7.17
2018-12-09T20:17:33.689Z,7.17
2018-12-09T20:20:02.822Z,7.20
2018-12-09T20:22:30.443Z,7.23
2018-12-09T20:24:59.042Z,7.21
2018-12-09T20:27:28.005Z,7.09
2018-12-09T20:29:57.222Z,7.14
2018-12-09T20:32:24.847Z,7.17
2018-12-09T20:34:52.468Z,7.09
2018-12-09T20:37:20.120Z,7.16
2018-12-09T20:39:47.744Z,7.06
2018-12-09T20:42:16.302Z,7.07
2018-12-09T20:44:43.987Z,7.03
2018-12-09T20:47:12.421Z,6.97
2018-12-09T20:49:40.867Z,7.04
2018-12-09T20:52:08.488Z,7.04
2018-12-09T20:54:36.110Z,7.05
2018-12-09T20:57:03.801Z,7.05
2018-12-09T20:59:33.030Z,7.07
2018-12-09T21:02:00.659Z,7.05
2018-12-09T21:04:28.356Z,7.03
2018-12-09T21:06:55.980Z,7.02
2018-12-09T21:09:24.452Z,6.97
2018-12-09T21:11:52.914Z,7.02
2018-12-09T21:14:21.909Z,7.03
2018-12-09T21:16:49.735Z,7.01
2018-12-09T21:19:17.391Z,7.02
2018-12-09T21:21:45.037Z,7.06
2018-12-09T21:24:12.690Z,6.99
2018-12-09T21:26:40.311Z,6.97
2018-12-09T21:29:07.955Z,6.93
2018-12-09T21:31:35.574Z,6.78
2018-12-09T21:34:03.775Z,6.77
2018-12-09T21:36:32.861Z,6.79
2018-12-09T21:39:00.511Z,6.73
2018-12-09T21:41:28.928Z,6.65
2018-12-09T21:43:57.494Z,6.65
2018-12-09T21:46:25.183Z,6.66
2018-12-09T21:48:53.637Z,6.71
2018-12-09T21:51:22.051Z,6.71
2018-12-09T21:53:49.720Z,6.73
2018-12-09T21:56:17.369Z,6.73
2018-12-09T21:58:45.029Z,6.78
2018-12-09T22:01:12.650Z,6.77
2018-12-09T22:03:40.310Z,6.73
2018-12-09T22:06:07.932Z,6.73
2018-12-09T22:08:35.596Z,6.70
2018-12-09T22:11:04.163Z,6.76
2018-12-09T22:13:32.709Z,6.75
2018-12-09T22:16:00.396Z,6.74
2018-12-09T22:18:28.022Z,6.66
2018-12-09T22:20:55.684Z,6.70
2018-12-09T22:23:23.305Z,6.67
2018-12-09T22:25:51.261Z,6.67
2018-12-09T22:28:18.880Z,6.68
2018-12-09T22:30:46.510Z,6.61
2018-12-09T22:33:14.130Z,6.63
2018-12-09T22:35:41.848Z,6.63
2018-12-09T22:38:09.467Z,6.57
2018-12-09T22:40:37.183Z,6.64
2018-12-09T22:43:04.862Z,6.61
2018-12-09T22:45:32.518Z,6.60
2018-12-09T22:48:00.131Z,6.59
2018-12-09T22:50:27.835Z,6.51
2018-12-09T22:52:56.459Z,6.61
2018-12-09T22:55:24.887Z,6.61
2018-12-09T22:57:53.518Z,6.59
2018-12-09T23:00:23.796Z,6.55
2018-12-09T23:03:03.450Z,6.52
2018-12-09T23:05:32.386Z,6.55
2018-12-09T23:08:00.001Z,6.54
2018-12-09T23:10:28.572Z,6.49
2018-12-09T23:12:56.196Z,6.49
2018-12-09T23:15:24.041Z,6.39
2018-12-09T23:17:52.470Z,6.40
2018-12-09T23:20:20.087Z,6.32
2018-12-09T23:22:48.503Z,6.29
2018-12-09T23:25:16.922Z,6.27
2018-12-09T23:27:44.576Z,6.24
2018-12-09T23:30:13.118Z,6.21
2018-12-09T23:32:41.524Z,6.18
2018-12-09T23:35:09.965Z,6.17
2018-12-09T23:37:38.375Z,6.15
2018-12-09T23:40:07.148Z,6.17
2018-12-09T23:42:35.542Z,6.13
2018-12-09T23:45:04.340Z,6.15
2018-12-09T23:47:33.016Z,6.06
2018-12-09T23:50:02.660Z,6.01
2018-12-09T23:52:30.272Z,5.98
2018-12-09T23:54:57.903Z,5.97
2018-12-09T23:57:26.385Z,5.92
2018-12-09T23:59:55.306Z,5.99
